CA-0428 weather

Elbow Airstrip
Elbow, Saskatchewan, Canada

Public forecast

Using degrees Celsius for public forecast. Weather courtesy of forecast.io.

Closest aviation weather report (METAR) to Elbow Airstrip

Closest report is Moose Jaw Air Vice Marshal C. M. McEwen Airport, 62.1 nm (115.0 km) SE. Retrieved 2019/12/11 19:00 UTC (3 minutes ago):

CYMJ 111900Z 11011KT 10SM -SN OVC045 M18/M21 A3009 RMK SC8 PCPN VRY LGT VIS W 8 SLP251

Closest aviation forecast (TAF) to Elbow Airstrip

Closest forecast is Moose Jaw Air Vice Marshal C. M. McEwen Airport, 62.1 nm (115.0 km) SE. Retrieved 2019/12/11 18:33 UTC (30 minutes ago):

TAF CYMJ 111730Z 1118/1206 11012KT P6SM IC FEW040 BKN070 TEMPO 1118/1124 6SM -SHSN OVC040 BECMG 1200/1202 11008KT RMK NXT FCST BY 120000Z